John Murtha Johnstown Cambria County Airport
KJST : now visible

Airfield :











YOU CAN JOIN US ON...

 
LOGIN :

Register | Disclaimer

   EN    FR    IT 

 









Legend :    VFR   Marginal VFR   IFR   Intensive IFR   Very Intensive IFR
Visi :
Ceiling :
>= 8 km
>= 3000ft
5 to 8 km
1000 to 3000 ft
1500m to 5 km
500 to 1000 ft
800 to 1500m
200 to 500 ft
< 800m
< 200 ft
Symbols :   Thunderstorms  Fog  Heavy snow  Heavy precipitations  Wind > 20 kt






- Airport Elevation : 2284 ft
- IATA code : JST


KJST - John Murtha Johnstown Cambria County

CURRENT METAR :
  • 080654Z AUTO 16009KT 10SM CLR M03/M09 A3032 RMK AO2 SLP296 T10331089

EXPIRED METARs :
  • 080554Z AUTO 15008KT 10SM CLR M04/M09 A3032 RMK AO2 SLP295 T10391089 11022 21050 58005
  • 080454Z AUTO 14005KT 10SM CLR M04/M09 A3034 RMK AO2 SLP304 T10441089 400001061

TAF KJST
Valid from the 08 at 06:00 until the 09 at 06:00 UTC


080543Z 0806/0906 00000KT P6SM SCT250
FM081600 18012G18KT P6SM SCT100 OVC250
FM081800 19012G18KT P6SM OVC050
FM082100 17010KT P6SM OVC050



MET'MAP, your aeronautical weather chart ! - Copyright ORBIFLY December 2007 - Disclaimer

ORBIFLY MET'MAP TEAM :

Programming & Development : Alexandra Zaïnal
Concept & original design : Baudouin d'Aumeries
Assistance for programming : Marc-Olivier Méhu
Technical & hardware support : Manuel Goepfert

Contact : metmap@orbifly.com




SOURCES & CREDITS :

   NOAA       Earth
Advisory